Decoded Metar for PAKN (KING SALMON in AK, USA) (IATA:AKN) | Meteo·Mobile Aviation Weather
aviador You're here:

PAKN Decoded Metar

KING SALMON in AK, USA
Report Time2018-12-16 13:54:00
UTC Time2018-12-16 14:49:36
Flight Rules mvfr MVFR
Wind340° at 08 kt
W.Decomp.*RWY 30: 7.3 kt HW 3.3 kt RCW
RWY 36: 6.5 kt HW 4.7 kt LCW
W.Rank340° ranks 12
Current wind is above 340° avg. (7.5)
Visibility4828 m
Phenomena:Light Snow
Clouds:Overcast 038 Hf
Expected CloudBase > 800 ft AGL from Temp-Dew spread
Ceiling3,800 ft
Temp-17°C (ISA -32)
Dew Point-19°C (85% RH)
AAT-23.4°C
QNH987 hPa
Density Alt-3,071 ft
Elevation56 ft
Report Wrong Elevation
Raw Report
PAKN 161354Z AUTO 34008KT 3SM -SN OVC038 M17/M19 A2916=

Extra information for PAKN:More info

Metar Taf Metar & Taf Last 4 Metars F.Rules Stats Wind Profile Meteogram Temp Stats Airport Information Weather charts Add Link Nearby VenuesMetar ALERT Operation Metar Decoded Social comments

AIRNAV info for PAKN